New Orleans, Louisiana
Traffic Map
Current Weather Conditions
New Orleans, Louisiana
Clear
Clear
28°
Feels Like: 31°
Wind Chill: 28° Ceiling: Unl
Heat Index: 31° Visibility: 10mi
Dew Point: 23° Wind: 0mph
Humidity: 74% Direction: ° ()
Pressure: 30.13in Gusts: 0mph
Raw Report DataKVSH 211215Z AUTO 00000KT 10SM CLR 28/23 A3013 RMK AO1
Traffic Incident Summary
Active as of:
Severity:
Category:
InformationThere was an issue retrieving the traffic information for this location. Please try a different location or try again shortly.
Advertisements
Track Severe Weather on mobile